Saint John Plt, Maine
Current Conditions -  °F | °C
As of 8:13 AM on Thursday 18 Dec 2014 (Local Time) from KFVE Reporting Station
Light Snow Light Snow  
Wind Chill: 13°   Ceiling: 2000
Heat Index: 25°   Visibility: 0.75mi
Dew Point: 23°   Wind: 14mph
Humidity: 92%   Direction: 340°NNW
Pressure: 29.61"   Gusts: NA
Location:  47.0224°N, 68.6923°W
Report Text: KFVE 181313Z AUTO 34012KT 3/4SM -SN BR FEW009 BKN020 OVC048 M04/M05 A2961 RMK AO2 P0001 T10391050
Loading
Personal Weather Stations






























Interactive Weather Map New forecast layout! Learn more

10-Day Weather Forecast

Advertisements
Track Severe Weather on mobile